Time;durP1;ratioP1;P1;durP2;ratioP2;P2;SDS_P1;SDS_P2;PMS_P1;PMS_P2;Temp;Humidity;BMP_temperature;BMP_pressure;BME280_temperature;BME280_humidity;BME280_pressure;Samples;Min_cycle;Max_cycle;Signal;HPM_P1;HPM_P2
2021/09/16 09:34:56;;;;;;;8.40;6.82;;;16.30;99.90;;;;;;5070786;28;20948;-65
2021/09/16 09:37:21;;;;;;;9.30;6.55;;;15.30;99.90;;;;;;5070727;28;20161;-66
2021/09/16 09:39:57;;;;;;;8.27;6.65;;;15.40;99.90;;;;;;5070633;28;20180;-66
2021/09/16 09:42:28;;;;;;;8.18;5.45;;;15.50;99.90;;;;;;5070640;28;20160;-66
2021/09/16 09:45:02;;;;;;;7.72;5.57;;;15.70;99.90;;;;;;5070815;28;20170;-66
2021/09/16 09:47:54;;;;;;;6.43;5.78;;;15.80;99.90;;;;;;5070572;28;20336;-66
2021/09/16 09:50:26;;;;;;;5.93;5.53;;;15.90;99.90;;;;;;5069331;28;20709;-66
2021/09/16 09:52:56;;;;;;;12.30;5.72;;;15.90;99.90;;;;;;5070308;28;20203;-64
2021/09/16 09:55:24;;;;;;;8.75;5.35;;;15.90;99.90;;;;;;5070308;28;20185;-63
2021/09/16 09:58:03;;;;;;;11.23;5.05;;;15.90;99.90;;;;;;5070306;28;20161;-63
2021/09/16 10:00:28;;;;;;;9.43;6.20;;;15.90;99.90;;;;;;5070187;28;20172;-63
2021/09/16 10:02:54;;;;;;;11.70;4.97;;;15.90;99.90;;;;;;5070351;28;20179;-63
2021/09/16 10:05:27;;;;;;;10.20;5.20;;;15.90;99.90;;;;;;5070103;28;20173;-64
2021/09/16 10:07:54;;;;;;;6.70;4.18;;;15.90;99.90;;;;;;5070151;28;20176;-63
2021/09/16 10:10:20;;;;;;;3.88;3.28;;;16.00;99.90;;;;;;5070100;28;20653;-63
2021/09/16 10:12:47;;;;;;;5.55;3.28;;;16.00;99.90;;;;;;5070270;28;20176;-63
2021/09/16 10:15:16;;;;;;;3.35;2.47;;;16.10;99.90;;;;;;5069982;28;20255;-63
2021/09/16 10:17:43;;;;;;;2.60;2.40;;;16.20;99.90;;;;;;5069773;28;20164;-64
2021/09/16 10:20:11;;;;;;;3.78;2.65;;;16.20;99.90;;;;;;5069796;28;20184;-63
2021/09/16 10:22:38;;;;;;;14.13;2.72;;;16.10;99.90;;;;;;5069678;28;20259;-63
2021/09/16 10:25:06;;;;;;;7.97;2.88;;;16.00;99.90;;;;;;5069743;28;20172;-63
2021/09/16 10:27:36;;;;;;;3.58;2.10;;;16.10;99.90;;;;;;5069756;28;20188;-63
2021/09/16 10:30:21;;;;;;;4.07;2.20;;;16.20;99.90;;;;;;5069597;28;20165;-63
2021/09/16 10:32:57;;;;;;;3.03;2.60;;;16.20;99.90;;;;;;5069300;28;20161;-63
2021/09/16 10:35:23;;;;;;;4.65;2.55;;;16.40;99.90;;;;;;5069545;28;20176;-63
2021/09/16 10:37:49;;;;;;;8.10;2.13;;;16.40;99.90;;;;;;5069524;28;20251;-63
2021/09/16 10:40:22;;;;;;;5.28;2.40;;;16.30;99.90;;;;;;5069439;28;20627;-63
2021/09/16 10:43:02;;;;;;;5.78;2.47;;;16.30;99.90;;;;;;5069316;28;20243;-63
2021/09/16 10:45:40;;;;;;;7.00;2.90;;;16.30;99.90;;;;;;5060733;28;20539;-63
2021/09/16 10:48:17;;;;;;;3.75;2.30;;;16.30;99.90;;;;;;5056105;28;20218;-63
2021/09/16 10:50:49;;;;;;;4.32;2.60;;;16.30;99.90;;;;;;5056033;28;20527;-65
2021/09/16 10:53:36;;;;;;;3.97;2.20;;;16.30;99.90;;;;;;5055979;28;20279;-66
2021/09/16 10:56:04;;;;;;;4.05;2.25;;;16.30;99.90;;;;;;5055916;28;20389;-66
2021/09/16 10:58:30;;;;;;;4.82;2.50;;;16.40;99.90;;;;;;5054654;28;20169;-66
2021/09/16 11:00:56;;;;;;;2.88;2.30;;;16.50;99.90;;;;;;5055847;28;20172;-66
2021/09/16 11:03:21;;;;;;;4.20;2.42;;;16.50;99.90;;;;;;5055740;28;20181;-66
2021/09/16 11:05:53;;;;;;;2.60;2.40;;;16.60;99.90;;;;;;5055740;28;20622;-66
2021/09/16 11:08:21;;;;;;;3.05;2.38;;;16.80;99.90;;;;;;5055726;28;20177;-66
2021/09/16 11:10:50;;;;;;;2.88;2.53;;;16.90;99.90;;;;;;5055628;28;20172;-66
2021/09/16 11:13:31;;;;;;;2.95;2.60;;;16.90;99.90;;;;;;5055622;28;20201;-66
2021/09/16 11:15:57;;;;;;;7.97;2.35;;;16.90;99.90;;;;;;5055596;28;20248;-66
2021/09/16 11:18:24;;;;;;;5.10;2.97;;;17.00;99.90;;;;;;5055557;28;20295;-66
2021/09/16 11:21:01;;;;;;;3.67;2.65;;;17.00;99.90;;;;;;5055472;28;20165;-66
2021/09/16 11:23:38;;;;;;;3.13;2.22;;;17.20;99.90;;;;;;5055490;28;20244;-66
2021/09/16 11:26:04;;;;;;;3.50;2.00;;;17.40;99.90;;;;;;5055458;28;20191;-66
2021/09/16 11:28:30;;;;;;;3.83;2.33;;;17.50;99.90;;;;;;5055293;28;20169;-66
2021/09/16 11:30:55;;;;;;;4.55;1.98;;;17.50;99.90;;;;;;5054048;28;20173;-66
2021/09/16 11:33:22;;;;;;;3.08;2.88;;;17.40;99.90;;;;;;5054989;28;20227;-66
2021/09/16 11:35:48;;;;;;;5.75;1.95;;;17.30;99.90;;;;;;5055212;28;20546;-66
2021/09/16 11:38:15;;;;;;;1.70;1.60;;;17.20;99.90;;;;;;5055154;28;20161;-66
2021/09/16 11:40:46;;;;;;;3.00;2.10;;;17.20;99.90;;;;;;5055136;28;20192;-66
2021/09/16 11:43:15;;;;;;;3.83;1.92;;;17.20;99.90;;;;;;5055060;28;20710;-66
2021/09/16 11:45:44;;;;;;;3.05;1.83;;;17.30;99.90;;;;;;5053767;28;20203;-66
2021/09/16 11:48:24;;;;;;;2.58;1.90;;;17.40;99.90;;;;;;5054994;28;20230;-66
2021/09/16 11:50:57;;;;;;;3.50;1.88;;;17.40;99.90;;;;;;5054934;28;20196;-66
2021/09/16 11:53:29;;;;;;;2.30;2.10;;;17.20;99.90;;;;;;5053507;28;20211;-66
2021/09/16 11:55:59;;;;;;;2.92;2.00;;;17.00;99.90;;;;;;5054352;28;20189;-66
2021/09/16 11:58:32;;;;;;;7.30;1.95;;;17.00;99.90;;;;;;5054233;28;20165;-66
2021/09/16 12:01:02;;;;;;;4.88;2.30;;;16.90;99.90;;;;;;5054669;28;20203;-66
2021/09/16 12:03:33;;;;;;;4.70;2.40;;;16.90;99.90;;;;;;5054729;28;20165;-66
2021/09/16 12:06:03;;;;;;;2.00;1.90;;;16.80;99.90;;;;;;5054531;28;20165;-66
2021/09/16 12:08:31;;;;;;;1.95;1.58;;;16.80;99.90;;;;;;5054598;28;20192;-66
2021/09/16 12:11:12;;;;;;;3.05;1.67;;;16.70;99.90;;;;;;5053265;28;20227;-66
2021/09/16 12:13:41;;;;;;;1.85;1.80;;;16.80;99.90;;;;;;5054409;28;20204;-66
2021/09/16 12:16:12;;;;;;;3.50;1.60;;;16.90;99.90;;;;;;5054417;28;20165;-66
2021/09/16 12:18:43;;;;;;;6.07;1.73;;;17.00;99.90;;;;;;5054391;28;20165;-66
2021/09/16 12:21:16;;;;;;;7.05;2.10;;;17.00;99.90;;;;;;5054302;28;20210;-66
2021/09/16 12:23:49;;;;;;;4.97;1.95;;;17.00;99.90;;;;;;5054316;28;20243;-66
2021/09/16 12:26:16;;;;;;;1.77;1.67;;;17.10;99.90;;;;;;5054292;28;20176;-66
2021/09/16 12:29:11;;;;;;;1.77;1.67;;;17.30;99.90;;;;;;5054132;28;20172;-66
2021/09/16 12:31:43;;;;;;;3.88;1.70;;;17.30;99.90;;;;;;5053243;28;20197;-66
2021/09/16 12:34:08;;;;;;;7.50;2.10;;;17.40;99.90;;;;;;5053877;28;20220;-66
2021/09/16 12:36:49;;;;;;;4.40;1.60;;;17.40;99.90;;;;;;5052796;28;20630;-66
2021/09/16 12:39:15;;;;;;;1.67;1.58;;;17.50;99.90;;;;;;5054096;28;20164;-66
2021/09/16 12:41:51;;;;;;;4.13;1.80;;;17.70;99.90;;;;;;5053960;28;20192;-66
2021/09/16 12:44:22;;;;;;;1.52;1.50;;;17.70;99.90;;;;;;5053954;28;20173;-66
2021/09/16 12:46:54;;;;;;;2.55;2.15;;;17.70;99.90;;;;;;5053916;28;20312;-66
2021/09/16 12:49:26;;;;;;;2.20;2.00;;;17.70;99.90;;;;;;5052573;28;20177;-66
2021/09/16 12:51:56;;;;;;;2.88;1.80;;;17.50;99.90;;;;;;5053710;28;20246;-66
2021/09/16 12:54:23;;;;;;;2.70;1.63;;;17.40;99.90;;;;;;5053609;28;20192;-66
2021/09/16 12:56:49;;;;;;;2.08;1.98;;;17.40;99.90;;;;;;5053648;28;20165;-66
2021/09/16 12:59:25;;;;;;;2.95;2.58;;;17.50;99.90;;;;;;5053745;28;20172;-66
2021/09/16 13:02:15;;;;;;;3.13;1.98;;;17.60;99.90;;;;;;5053590;28;20645;-66
2021/09/16 13:04:56;;;;;;;3.13;2.30;;;17.50;99.90;;;;;;5053551;28;20179;-66
2021/09/16 13:07:26;;;;;;;7.15;2.22;;;17.50;99.90;;;;;;5053374;28;20172;-66
2021/09/16 13:10:16;;;;;;;7.03;2.83;;;17.60;99.90;;;;;;5053479;28;20688;-66
2021/09/16 13:12:45;;;;;;;5.70;1.98;;;17.60;99.90;;;;;;5053269;28;20180;-66
2021/09/16 13:15:13;;;;;;;2.50;1.85;;;17.80;99.90;;;;;;5053429;28;20176;-66
2021/09/16 13:17:39;;;;;;;3.88;2.08;;;17.70;99.90;;;;;;5053371;28;20169;-66
2021/09/16 13:20:06;;;;;;;2.65;2.05;;;17.60;99.90;;;;;;5053408;28;20173;-66
2021/09/16 13:22:31;;;;;;;2.53;2.20;;;17.60;99.90;;;;;;5053283;28;20253;-66
2021/09/16 13:24:59;;;;;;;4.03;2.70;;;17.60;99.90;;;;;;5053314;28;20255;-66
2021/09/16 13:27:25;;;;;;;3.28;3.08;;;17.60;99.90;;;;;;5053526;28;20242;-66
2021/09/16 13:29:51;;;;;;;4.15;2.28;;;17.60;99.90;;;;;;5051958;28;20195;-66
2021/09/16 13:32:17;;;;;;;3.45;2.22;;;17.70;99.90;;;;;;5053292;28;20630;-66
2021/09/16 13:34:43;;;;;;;1.98;1.85;;;17.80;99.90;;;;;;5052981;28;20243;-66
2021/09/16 13:37:09;;;;;;;2.03;1.92;;;17.90;99.90;;;;;;5053166;28;20179;-66
2021/09/16 13:39:35;;;;;;;2.55;2.35;;;18.10;99.90;;;;;;5053095;28;20165;-66
2021/09/16 13:42:03;;;;;;;2.60;2.20;;;18.20;99.90;;;;;;5053107;28;20518;-66
2021/09/16 13:44:29;;;;;;;2.10;1.90;;;18.40;99.90;;;;;;5051879;28;20177;-66
2021/09/16 13:46:54;;;;;;;5.00;2.00;;;18.30;99.90;;;;;;5053086;28;20207;-66
2021/09/16 13:49:20;;;;;;;1.95;1.80;;;18.20;99.90;;;;;;5053084;28;20173;-66
2021/09/16 13:51:46;;;;;;;2.13;1.98;;;18.10;99.90;;;;;;5053007;28;20258;-66
2021/09/16 13:54:12;;;;;;;2.72;2.50;;;17.90;99.90;;;;;;5052879;28;20293;-66
2021/09/16 13:56:37;;;;;;;2.17;2.00;;;17.80;99.90;;;;;;5052946;28;20669;-66
2021/09/16 13:59:03;;;;;;;2.30;2.10;;;17.90;99.90;;;;;;5052973;28;20209;-66
2021/09/16 14:01:29;;;;;;;2.78;2.58;;;17.90;99.90;;;;;;5052919;28;20180;-66
2021/09/16 14:03:54;;;;;;;2.78;2.53;;;18.10;99.90;;;;;;5052931;28;20240;-66
2021/09/16 14:06:20;;;;;;;4.53;3.05;;;18.20;99.90;;;;;;5052860;28;20161;-66
2021/09/16 14:08:46;;;;;;;4.20;3.05;;;18.40;99.90;;;;;;5052742;28;20252;-66
2021/09/16 14:11:13;;;;;;;3.63;3.28;;;18.40;99.90;;;;;;5052879;28;20626;-66
2021/09/16 14:13:39;;;;;;;2.90;2.70;;;18.40;99.90;;;;;;5052761;28;20197;-66
2021/09/16 14:16:05;;;;;;;3.13;2.92;;;18.50;99.90;;;;;;5051583;28;20518;-66
2021/09/16 14:18:31;;;;;;;3.35;2.92;;;18.40;99.90;;;;;;5052932;28;20187;-66
2021/09/16 14:20:56;;;;;;;3.17;2.90;;;18.40;99.90;;;;;;5055239;28;20169;-66
2021/09/16 14:23:22;;;;;;;3.60;3.30;;;18.30;99.90;;;;;;5056531;28;20168;-66
2021/09/16 14:25:48;;;;;;;4.53;3.58;;;18.10;99.90;;;;;;5055274;28;20177;-66
2021/09/16 14:28:14;;;;;;;5.22;3.03;;;18.10;99.90;;;;;;5056465;28;20169;-66
2021/09/16 14:30:43;;;;;;;2.67;2.50;;;18.20;99.90;;;;;;5056448;28;20173;-66
2021/09/16 14:33:10;;;;;;;4.28;2.80;;;18.20;99.90;;;;;;5056207;28;20225;-66
2021/09/16 14:35:36;;;;;;;3.53;2.63;;;18.20;99.90;;;;;;5056428;28;20169;-66
2021/09/16 14:38:04;;;;;;;2.88;2.67;;;18.20;99.90;;;;;;5056279;28;20165;-66
2021/09/16 14:40:31;;;;;;;4.93;3.03;;;18.10;99.90;;;;;;5056208;28;20172;-66
2021/09/16 14:42:56;;;;;;;5.45;2.60;;;18.10;99.90;;;;;;5056224;28;20173;-66
2021/09/16 14:45:23;;;;;;;3.90;2.58;;;18.10;99.90;;;;;;5056153;28;20173;-66
2021/09/16 14:47:49;;;;;;;3.60;2.90;;;18.10;99.90;;;;;;5056099;28;20176;-66
2021/09/16 14:50:14;;;;;;;2.80;2.60;;;18.10;99.90;;;;;;5056071;28;20531;-66
2021/09/16 14:52:40;;;;;;;5.63;2.67;;;18.00;99.90;;;;;;5055823;28;20525;-66
2021/09/16 14:55:06;;;;;;;3.00;2.72;;;17.90;99.90;;;;;;5055977;28;20228;-66
2021/09/16 14:57:32;;;;;;;2.92;2.78;;;17.80;99.90;;;;;;5054700;28;20169;-66
2021/09/16 14:59:57;;;;;;;4.50;3.10;;;17.70;99.90;;;;;;5056029;28;20168;-66
2021/09/16 15:02:23;;;;;;;5.18;3.33;;;17.70;99.90;;;;;;5056027;28;20169;-66
2021/09/16 15:04:48;;;;;;;3.92;3.45;;;17.70;99.90;;;;;;5055928;28;20214;-66
2021/09/16 15:07:14;;;;;;;3.33;3.00;;;17.50;99.90;;;;;;5054660;28;20216;-66
2021/09/16 15:09:39;;;;;;;3.75;3.00;;;17.50;99.90;;;;;;5055819;28;20165;-66
2021/09/16 15:12:05;;;;;;;3.80;3.50;;;17.50;99.90;;;;;;5055796;28;20327;-66
2021/09/16 15:14:31;;;;;;;4.70;3.20;;;17.60;99.90;;;;;;5055798;28;20193;-66
2021/09/16 15:16:57;;;;;;;3.08;2.88;;;17.80;99.90;;;;;;5055759;28;20172;-66
2021/09/16 15:19:23;;;;;;;4.28;2.88;;;17.80;99.90;;;;;;5054453;28;20622;-66
2021/09/16 15:21:49;;;;;;;4.82;3.05;;;17.80;99.90;;;;;;5055610;28;20173;-66
2021/09/16 15:24:14;;;;;;;5.65;3.38;;;17.80;99.90;;;;;;5055501;28;20177;-66
2021/09/16 15:26:40;;;;;;;5.50;3.30;;;17.80;99.90;;;;;;5055418;28;20173;-66
2021/09/16 15:29:06;;;;;;;3.35;3.13;;;17.70;99.90;;;;;;5055543;28;20180;-67
2021/09/16 15:31:32;;;;;;;5.35;3.20;;;17.70;99.90;;;;;;5055344;28;20180;-67
2021/09/16 15:33:57;;;;;;;5.47;2.80;;;17.60;99.90;;;;;;5055169;28;20555;-73
2021/09/16 15:36:23;;;;;;;2.92;2.72;;;17.50;99.90;;;;;;5055414;28;20169;-73
2021/09/16 15:38:48;;;;;;;5.22;2.63;;;17.50;99.90;;;;;;5055305;28;20165;-76
2021/09/16 15:41:14;;;;;;;8.23;3.13;;;17.50;99.90;;;;;;5055473;28;20161;-70
2021/09/16 15:43:40;;;;;;;4.53;2.78;;;17.50;99.90;;;;;;5055208;28;20173;-70
2021/09/16 15:46:06;;;;;;;11.07;2.50;;;17.40;99.90;;;;;;5055238;28;20165;-70
2021/09/16 15:48:31;;;;;;;15.93;3.15;;;17.40;99.90;;;;;;5053851;28;20551;-67
2021/09/16 15:51:00;;;;;;;3.03;2.65;;;17.40;99.90;;;;;;5055009;28;20184;-68
2021/09/16 15:53:27;;;;;;;3.38;2.60;;;17.30;99.90;;;;;;5055089;28;20193;-68
2021/09/16 15:55:53;;;;;;;3.60;2.33;;;17.30;99.90;;;;;;5055062;28;20712;-69
2021/09/16 15:58:18;;;;;;;2.97;2.67;;;17.20;99.90;;;;;;5055071;28;20169;-65
2021/09/16 16:25:01;;;;;;;3.20;1.88;;;;;;;;;;5090927;28;20923;-71
2021/09/16 16:27:27;;;;;;;2.38;2.20;;;;;;;;;;5090942;28;20167;-72
2021/09/16 16:29:53;;;;;;;2.65;2.13;;;;;;;;;;5090873;28;20163;-72
2021/09/16 16:32:19;;;;;;;3.70;2.17;;;;;;;;;;5090867;28;20172;-71
2021/09/16 16:34:45;;;;;;;4.03;2.50;;;;;;;;;;5090717;28;20257;-72
2021/09/16 16:37:11;;;;;;;2.22;2.10;;;17.30;99.90;;;;;;5090726;28;20516;-74
2021/09/16 16:39:36;;;;;;;4.07;2.05;;;17.30;99.90;;;;;;5090601;28;20167;-74
2021/09/16 16:42:02;;;;;;;2.67;2.08;;;17.40;99.90;;;;;;5090608;28;20172;-67
2021/09/16 16:44:28;;;;;;;2.85;2.05;;;17.40;99.90;;;;;;5090424;28;20568;-67
2021/09/16 16:46:53;;;;;;;6.50;2.13;;;17.30;99.90;;;;;;5090422;28;20250;-67
2021/09/16 16:49:19;;;;;;;3.90;2.00;;;17.30;99.90;;;;;;5090363;28;20250;-67
2021/09/16 16:51:45;;;;;;;3.13;2.25;;;17.30;99.90;;;;;;5090353;28;20183;-67
2021/09/16 16:54:10;;;;;;;2.75;2.65;;;17.20;99.90;;;;;;5089091;28;20167;-67
2021/09/16 16:56:36;;;;;;;2.28;2.17;;;17.20;99.90;;;;;;5090256;28;20217;-67
2021/09/16 16:59:01;;;;;;;2.53;2.00;;;17.20;99.90;;;;;;5090191;28;20609;-67
2021/09/16 17:01:27;;;;;;;2.13;2.03;;;17.10;99.90;;;;;;5090161;28;20214;-66
2021/09/16 17:03:53;;;;;;;3.35;2.15;;;17.30;99.90;;;;;;5089989;28;20301;-67
2021/09/16 17:06:18;;;;;;;8.43;2.63;;;17.40;99.90;;;;;;5090132;28;20194;-67
2021/09/16 17:08:44;;;;;;;2.40;2.20;;;17.40;99.90;;;;;;5090140;28;20209;-67
2021/09/16 17:11:09;;;;;;;2.92;2.25;;;17.00;99.90;;;;;;5088594;28;20202;-68
2021/09/16 17:13:35;;;;;;;3.80;2.53;;;17.40;99.90;;;;;;5089820;28;20266;-68
2021/09/16 17:16:00;;;;;;;2.30;2.10;;;17.30;99.90;;;;;;5088523;28;20708;-68
2021/09/16 17:18:26;;;;;;;5.18;2.92;;;17.20;99.90;;;;;;5089681;28;20176;-68
2021/09/16 17:20:52;;;;;;;2.20;2.00;;;17.20;99.90;;;;;;5089654;28;20218;-68
2021/09/16 17:23:17;;;;;;;3.30;2.45;;;17.10;99.90;;;;;;5089395;28;20219;-68
2021/09/16 17:25:43;;;;;;;6.82;3.05;;;16.90;99.90;;;;;;5089607;28;20176;-68
2021/09/16 17:28:08;;;;;;;3.67;2.28;;;17.00;99.90;;;;;;5089526;28;20160;-68
